Terminal Aerodrome Forecast
Issued by NWS Pocatello, ID

Home | Current Version | Previous Version | Text Only | Print | Product List | Glossary On
Versions: 1 2 3 4 5 6 7 8 9 10 11 12
000
FTUS45 KPIH 070520
TAFBYI
TAF
KBYI 070520Z 0706/0806 22008KT P6SM BKN060 OVC090
     FM071200 VRB04KT P6SM SCT015 OVC050
      TEMPO 0712/0716 BKN015 OVC050
     FM071900 31008KT P6SM VCTS SCT025 BKN040CB BKN100
     FM080200 05010KT P6SM VCTS SCT060CB BKN100 BKN200=

USA.gov is the U.S. government's official web portal to all federal, state and local government web resources and services.